sensor_id;sensor_type;location;lat;lon;timestamp;P1;durP1;ratioP1;P2;durP2;ratioP2
35578;SDS011;21687;48.900;9.188;2022-07-23T00:00:59;5.70;;;5.20;;
35578;SDS011;21687;48.900;9.188;2022-07-23T00:03:26;6.73;;;5.30;;
35578;SDS011;21687;48.900;9.188;2022-07-23T00:05:53;6.23;;;4.90;;
35578;SDS011;21687;48.900;9.188;2022-07-23T00:08:19;5.67;;;5.07;;
35578;SDS011;21687;48.900;9.188;2022-07-23T00:10:46;5.23;;;4.63;;
35578;SDS011;21687;48.900;9.188;2022-07-23T00:13:12;5.07;;;4.67;;
35578;SDS011;21687;48.900;9.188;2022-07-23T00:15:39;5.20;;;4.70;;
35578;SDS011;21687;48.900;9.188;2022-07-23T00:18:05;5.00;;;4.57;;
35578;SDS011;21687;48.900;9.188;2022-07-23T00:20:31;5.07;;;4.67;;
35578;SDS011;21687;48.900;9.188;2022-07-23T00:22:58;4.40;;;4.00;;
35578;SDS011;21687;48.900;9.188;2022-07-23T00:25:24;4.93;;;4.37;;
35578;SDS011;21687;48.900;9.188;2022-07-23T00:27:51;5.70;;;4.67;;
35578;SDS011;21687;48.900;9.188;2022-07-23T00:30:17;4.67;;;4.20;;
35578;SDS011;21687;48.900;9.188;2022-07-23T00:32:50;4.97;;;4.27;;
35578;SDS011;21687;48.900;9.188;2022-07-23T00:35:21;4.80;;;4.37;;
35578;SDS011;21687;48.900;9.188;2022-07-23T00:37:49;4.90;;;4.40;;
35578;SDS011;21687;48.900;9.188;2022-07-23T00:40:16;4.73;;;4.33;;
35578;SDS011;21687;48.900;9.188;2022-07-23T00:42:42;4.90;;;4.40;;
35578;SDS011;21687;48.900;9.188;2022-07-23T00:45:09;4.73;;;4.20;;
35578;SDS011;21687;48.900;9.188;2022-07-23T00:47:35;5.10;;;4.60;;
35578;SDS011;21687;48.900;9.188;2022-07-23T00:50:05;4.40;;;4.10;;
35578;SDS011;21687;48.900;9.188;2022-07-23T00:52:34;4.67;;;4.10;;
35578;SDS011;21687;48.900;9.188;2022-07-23T00:55:01;4.83;;;4.33;;
35578;SDS011;21687;48.900;9.188;2022-07-23T00:57:31;4.60;;;4.30;;
35578;SDS011;21687;48.900;9.188;2022-07-23T00:59:57;4.30;;;3.90;;
35578;SDS011;21687;48.900;9.188;2022-07-23T01:02:24;4.50;;;4.10;;
35578;SDS011;21687;48.900;9.188;2022-07-23T01:04:51;4.80;;;4.40;;
35578;SDS011;21687;48.900;9.188;2022-07-23T01:07:18;4.67;;;4.27;;
35578;SDS011;21687;48.900;9.188;2022-07-23T01:09:45;4.87;;;4.27;;
35578;SDS011;21687;48.900;9.188;2022-07-23T01:12:12;4.70;;;4.23;;
35578;SDS011;21687;48.900;9.188;2022-07-23T01:14:38;4.73;;;4.27;;
35578;SDS011;21687;48.900;9.188;2022-07-23T01:17:05;4.53;;;4.20;;
35578;SDS011;21687;48.900;9.188;2022-07-23T01:19:31;6.03;;;4.43;;
35578;SDS011;21687;48.900;9.188;2022-07-23T01:21:57;4.80;;;4.30;;
35578;SDS011;21687;48.900;9.188;2022-07-23T01:24:25;5.57;;;4.67;;
35578;SDS011;21687;48.900;9.188;2022-07-23T01:26:52;5.67;;;4.47;;
35578;SDS011;21687;48.900;9.188;2022-07-23T01:29:18;5.37;;;4.73;;
35578;SDS011;21687;48.900;9.188;2022-07-23T01:31:46;4.87;;;4.30;;
35578;SDS011;21687;48.900;9.188;2022-07-23T01:34:12;5.83;;;4.33;;
35578;SDS011;21687;48.900;9.188;2022-07-23T01:36:39;5.03;;;4.53;;
35578;SDS011;21687;48.900;9.188;2022-07-23T01:39:06;5.10;;;4.40;;
35578;SDS011;21687;48.900;9.188;2022-07-23T01:41:33;5.93;;;5.00;;
35578;SDS011;21687;48.900;9.188;2022-07-23T01:43:59;4.90;;;4.50;;
35578;SDS011;21687;48.900;9.188;2022-07-23T01:46:26;5.57;;;4.73;;
35578;SDS011;21687;48.900;9.188;2022-07-23T01:48:52;5.40;;;4.60;;
35578;SDS011;21687;48.900;9.188;2022-07-23T01:51:18;5.43;;;5.00;;
35578;SDS011;21687;48.900;9.188;2022-07-23T01:53:45;5.47;;;4.93;;
35578;SDS011;21687;48.900;9.188;2022-07-23T01:56:11;5.57;;;5.07;;
35578;SDS011;21687;48.900;9.188;2022-07-23T01:58:40;5.13;;;4.73;;
35578;SDS011;21687;48.900;9.188;2022-07-23T02:01:06;4.93;;;4.47;;
35578;SDS011;21687;48.900;9.188;2022-07-23T02:03:32;5.60;;;5.10;;
35578;SDS011;21687;48.900;9.188;2022-07-23T02:05:58;5.10;;;4.70;;
35578;SDS011;21687;48.900;9.188;2022-07-23T02:08:24;5.60;;;4.67;;
35578;SDS011;21687;48.900;9.188;2022-07-23T02:10:51;5.10;;;4.70;;
35578;SDS011;21687;48.900;9.188;2022-07-23T02:16:17;5.77;;;5.27;;
35578;SDS011;21687;48.900;9.188;2022-07-23T02:18:43;5.10;;;4.60;;
35578;SDS011;21687;48.900;9.188;2022-07-23T02:21:11;5.40;;;4.87;;
35578;SDS011;21687;48.900;9.188;2022-07-23T02:23:37;5.60;;;5.10;;
35578;SDS011;21687;48.900;9.188;2022-07-23T02:26:03;5.43;;;4.93;;
35578;SDS011;21687;48.900;9.188;2022-07-23T02:28:30;5.83;;;5.30;;
35578;SDS011;21687;48.900;9.188;2022-07-23T02:30:56;5.33;;;4.90;;
35578;SDS011;21687;48.900;9.188;2022-07-23T02:33:22;5.27;;;4.87;;
35578;SDS011;21687;48.900;9.188;2022-07-23T02:35:48;5.30;;;4.90;;
35578;SDS011;21687;48.900;9.188;2022-07-23T02:38:15;5.87;;;5.27;;
35578;SDS011;21687;48.900;9.188;2022-07-23T02:40:41;5.63;;;5.03;;
35578;SDS011;21687;48.900;9.188;2022-07-23T02:43:07;6.87;;;5.07;;
35578;SDS011;21687;48.900;9.188;2022-07-23T02:45:33;5.30;;;4.90;;
35578;SDS011;21687;48.900;9.188;2022-07-23T02:48:00;6.00;;;5.10;;
35578;SDS011;21687;48.900;9.188;2022-07-23T02:50:26;5.57;;;5.07;;
35578;SDS011;21687;48.900;9.188;2022-07-23T02:52:52;5.40;;;4.90;;
35578;SDS011;21687;48.900;9.188;2022-07-23T02:55:18;6.97;;;5.90;;
35578;SDS011;21687;48.900;9.188;2022-07-23T02:57:45;6.23;;;5.63;;
35578;SDS011;21687;48.900;9.188;2022-07-23T03:00:11;5.70;;;5.20;;
35578;SDS011;21687;48.900;9.188;2022-07-23T03:02:37;5.13;;;4.73;;
35578;SDS011;21687;48.900;9.188;2022-07-23T03:05:04;5.53;;;4.97;;
35578;SDS011;21687;48.900;9.188;2022-07-23T03:07:31;6.47;;;5.80;;
35578;SDS011;21687;48.900;9.188;2022-07-23T03:09:57;5.73;;;5.27;;
35578;SDS011;21687;48.900;9.188;2022-07-23T03:12:23;5.87;;;5.27;;
35578;SDS011;21687;48.900;9.188;2022-07-23T03:14:50;5.83;;;5.10;;
35578;SDS011;21687;48.900;9.188;2022-07-23T03:17:16;5.80;;;5.30;;
35578;SDS011;21687;48.900;9.188;2022-07-23T03:19:42;5.87;;;5.20;;
35578;SDS011;21687;48.900;9.188;2022-07-23T03:22:09;5.63;;;5.13;;
35578;SDS011;21687;48.900;9.188;2022-07-23T03:24:35;5.83;;;5.33;;
35578;SDS011;21687;48.900;9.188;2022-07-23T03:27:27;5.93;;;5.43;;
35578;SDS011;21687;48.900;9.188;2022-07-23T03:29:56;6.10;;;5.50;;
35578;SDS011;21687;48.900;9.188;2022-07-23T03:32:23;5.50;;;5.10;;
35578;SDS011;21687;48.900;9.188;2022-07-23T03:34:51;5.77;;;5.27;;
35578;SDS011;21687;48.900;9.188;2022-07-23T03:37:18;5.63;;;5.13;;
35578;SDS011;21687;48.900;9.188;2022-07-23T03:39:44;6.17;;;5.57;;
35578;SDS011;21687;48.900;9.188;2022-07-23T03:42:11;6.93;;;5.67;;
35578;SDS011;21687;48.900;9.188;2022-07-23T03:44:37;5.70;;;5.20;;
35578;SDS011;21687;48.900;9.188;2022-07-23T03:47:04;5.40;;;4.90;;
35578;SDS011;21687;48.900;9.188;2022-07-23T03:49:31;5.53;;;5.10;;
35578;SDS011;21687;48.900;9.188;2022-07-23T03:51:58;6.23;;;5.53;;
35578;SDS011;21687;48.900;9.188;2022-07-23T03:54:24;5.73;;;5.13;;
35578;SDS011;21687;48.900;9.188;2022-07-23T03:56:51;5.80;;;5.20;;
35578;SDS011;21687;48.900;9.188;2022-07-23T03:59:17;5.30;;;4.90;;
35578;SDS011;21687;48.900;9.188;2022-07-23T04:01:43;5.17;;;4.77;;
35578;SDS011;21687;48.900;9.188;2022-07-23T04:04:10;5.67;;;5.17;;
35578;SDS011;21687;48.900;9.188;2022-07-23T04:06:36;5.37;;;4.87;;
35578;SDS011;21687;48.900;9.188;2022-07-23T04:09:02;5.63;;;5.10;;
35578;SDS011;21687;48.900;9.188;2022-07-23T04:11:29;5.43;;;4.93;;
35578;SDS011;21687;48.900;9.188;2022-07-23T04:13:55;5.50;;;4.87;;
35578;SDS011;21687;48.900;9.188;2022-07-23T04:16:22;5.23;;;4.83;;
35578;SDS011;21687;48.900;9.188;2022-07-23T04:18:48;7.20;;;5.00;;
35578;SDS011;21687;48.900;9.188;2022-07-23T04:21:14;6.57;;;5.07;;
35578;SDS011;21687;48.900;9.188;2022-07-23T04:23:40;5.47;;;5.07;;
35578;SDS011;21687;48.900;9.188;2022-07-23T04:26:06;7.37;;;6.67;;
35578;SDS011;21687;48.900;9.188;2022-07-23T04:28:33;6.67;;;6.07;;
35578;SDS011;21687;48.900;9.188;2022-07-23T04:30:59;5.70;;;5.17;;
35578;SDS011;21687;48.900;9.188;2022-07-23T04:33:25;6.17;;;5.57;;
35578;SDS011;21687;48.900;9.188;2022-07-23T04:35:51;5.70;;;5.20;;
35578;SDS011;21687;48.900;9.188;2022-07-23T04:38:18;6.37;;;5.03;;
35578;SDS011;21687;48.900;9.188;2022-07-23T04:40:44;7.37;;;5.20;;
35578;SDS011;21687;48.900;9.188;2022-07-23T04:43:10;6.07;;;5.50;;
35578;SDS011;21687;48.900;9.188;2022-07-23T04:45:36;5.40;;;4.90;;
35578;SDS011;21687;48.900;9.188;2022-07-23T04:48:03;5.60;;;5.10;;
35578;SDS011;21687;48.900;9.188;2022-07-23T04:50:29;5.77;;;5.10;;
35578;SDS011;21687;48.900;9.188;2022-07-23T04:52:55;6.30;;;4.90;;
35578;SDS011;21687;48.900;9.188;2022-07-23T04:55:22;5.30;;;4.80;;
35578;SDS011;21687;48.900;9.188;2022-07-23T04:57:48;8.03;;;4.90;;
35578;SDS011;21687;48.900;9.188;2022-07-23T05:00:14;6.13;;;5.43;;
35578;SDS011;21687;48.900;9.188;2022-07-23T05:02:41;5.40;;;4.90;;
35578;SDS011;21687;48.900;9.188;2022-07-23T05:05:08;6.37;;;5.00;;
35578;SDS011;21687;48.900;9.188;2022-07-23T05:07:34;6.77;;;4.60;;
35578;SDS011;21687;48.900;9.188;2022-07-23T05:10:00;5.17;;;4.67;;
35578;SDS011;21687;48.900;9.188;2022-07-23T05:12:26;5.40;;;4.43;;
35578;SDS011;21687;48.900;9.188;2022-07-23T05:14:53;6.53;;;5.37;;
35578;SDS011;21687;48.900;9.188;2022-07-23T05:17:19;5.97;;;4.73;;
35578;SDS011;21687;48.900;9.188;2022-07-23T05:19:45;4.70;;;4.40;;
35578;SDS011;21687;48.900;9.188;2022-07-23T05:22:11;5.73;;;4.70;;
35578;SDS011;21687;48.900;9.188;2022-07-23T05:24:38;4.97;;;4.57;;
35578;SDS011;21687;48.900;9.188;2022-07-23T05:27:04;4.90;;;4.50;;
35578;SDS011;21687;48.900;9.188;2022-07-23T05:29:30;6.37;;;4.93;;
35578;SDS011;21687;48.900;9.188;2022-07-23T05:31:56;7.57;;;4.57;;
35578;SDS011;21687;48.900;9.188;2022-07-23T05:34:22;5.23;;;4.83;;
35578;SDS011;21687;48.900;9.188;2022-07-23T05:36:49;5.07;;;4.57;;
35578;SDS011;21687;48.900;9.188;2022-07-23T05:39:15;10.20;;;4.90;;
35578;SDS011;21687;48.900;9.188;2022-07-23T05:41:41;5.30;;;4.80;;
35578;SDS011;21687;48.900;9.188;2022-07-23T05:44:07;5.17;;;4.67;;
35578;SDS011;21687;48.900;9.188;2022-07-23T05:46:33;5.63;;;5.23;;
35578;SDS011;21687;48.900;9.188;2022-07-23T05:49:00;5.17;;;4.77;;
35578;SDS011;21687;48.900;9.188;2022-07-23T05:51:26;7.40;;;5.63;;
35578;SDS011;21687;48.900;9.188;2022-07-23T05:53:52;5.60;;;5.10;;
35578;SDS011;21687;48.900;9.188;2022-07-23T05:56:18;5.43;;;5.00;;
35578;SDS011;21687;48.900;9.188;2022-07-23T05:58:45;5.67;;;5.17;;
35578;SDS011;21687;48.900;9.188;2022-07-23T06:01:11;6.40;;;5.73;;
35578;SDS011;21687;48.900;9.188;2022-07-23T06:03:37;5.57;;;5.07;;
35578;SDS011;21687;48.900;9.188;2022-07-23T06:06:04;6.13;;;5.53;;
35578;SDS011;21687;48.900;9.188;2022-07-23T06:08:31;6.27;;;5.67;;
35578;SDS011;21687;48.900;9.188;2022-07-23T06:10:57;6.03;;;5.10;;
35578;SDS011;21687;48.900;9.188;2022-07-23T06:13:23;7.77;;;5.60;;
35578;SDS011;21687;48.900;9.188;2022-07-23T06:15:49;6.57;;;5.80;;
35578;SDS011;21687;48.900;9.188;2022-07-23T06:18:16;6.30;;;5.70;;
35578;SDS011;21687;48.900;9.188;2022-07-23T06:20:42;9.03;;;5.90;;
35578;SDS011;21687;48.900;9.188;2022-07-23T06:23:08;6.17;;;5.57;;
35578;SDS011;21687;48.900;9.188;2022-07-23T06:25:35;6.23;;;5.63;;
35578;SDS011;21687;48.900;9.188;2022-07-23T06:28:01;7.07;;;6.30;;
35578;SDS011;21687;48.900;9.188;2022-07-23T06:30:27;6.30;;;5.70;;
35578;SDS011;21687;48.900;9.188;2022-07-23T06:32:53;7.07;;;6.37;;
35578;SDS011;21687;48.900;9.188;2022-07-23T06:35:20;6.83;;;6.10;;
35578;SDS011;21687;48.900;9.188;2022-07-23T06:37:46;7.60;;;6.90;;
35578;SDS011;21687;48.900;9.188;2022-07-23T06:40:12;7.40;;;6.50;;
35578;SDS011;21687;48.900;9.188;2022-07-23T06:42:38;8.67;;;6.30;;
35578;SDS011;21687;48.900;9.188;2022-07-23T06:45:05;7.67;;;6.17;;
35578;SDS011;21687;48.900;9.188;2022-07-23T06:47:32;7.07;;;5.90;;
35578;SDS011;21687;48.900;9.188;2022-07-23T06:49:58;6.27;;;5.67;;
35578;SDS011;21687;48.900;9.188;2022-07-23T06:52:25;9.10;;;6.10;;
35578;SDS011;21687;48.900;9.188;2022-07-23T06:54:51;6.67;;;6.07;;
35578;SDS011;21687;48.900;9.188;2022-07-23T06:57:18;7.23;;;6.30;;
35578;SDS011;21687;48.900;9.188;2022-07-23T06:59:44;6.70;;;6.10;;
35578;SDS011;21687;48.900;9.188;2022-07-23T07:02:10;8.20;;;6.00;;
35578;SDS011;21687;48.900;9.188;2022-07-23T07:04:36;6.60;;;6.00;;
35578;SDS011;21687;48.900;9.188;2022-07-23T07:07:03;7.73;;;5.90;;
35578;SDS011;21687;48.900;9.188;2022-07-23T07:09:29;7.03;;;5.90;;
35578;SDS011;21687;48.900;9.188;2022-07-23T07:11:55;6.97;;;6.00;;
35578;SDS011;21687;48.900;9.188;2022-07-23T07:14:21;7.97;;;7.17;;
35578;SDS011;21687;48.900;9.188;2022-07-23T07:16:48;7.17;;;6.57;;
35578;SDS011;21687;48.900;9.188;2022-07-23T07:19:14;9.80;;;8.07;;
35578;SDS011;21687;48.900;9.188;2022-07-23T07:21:40;8.80;;;7.90;;
35578;SDS011;21687;48.900;9.188;2022-07-23T07:24:07;11.33;;;7.97;;
35578;SDS011;21687;48.900;9.188;2022-07-23T07:26:37;9.43;;;8.53;;
35578;SDS011;21687;48.900;9.188;2022-07-23T07:29:04;8.70;;;7.90;;
35578;SDS011;21687;48.900;9.188;2022-07-23T07:31:33;10.20;;;9.20;;
35578;SDS011;21687;48.900;9.188;2022-07-23T07:34:03;11.23;;;9.40;;
35578;SDS011;21687;48.900;9.188;2022-07-23T07:36:35;13.97;;;10.03;;
35578;SDS011;21687;48.900;9.188;2022-07-23T07:39:03;12.40;;;11.07;;
35578;SDS011;21687;48.900;9.188;2022-07-23T07:41:30;11.50;;;10.13;;
35578;SDS011;21687;48.900;9.188;2022-07-23T07:44:00;10.07;;;9.10;;
35578;SDS011;21687;48.900;9.188;2022-07-23T07:46:26;8.73;;;8.03;;
35578;SDS011;21687;48.900;9.188;2022-07-23T07:48:53;9.40;;;8.60;;
35578;SDS011;21687;48.900;9.188;2022-07-23T07:51:19;10.53;;;8.50;;
35578;SDS011;21687;48.900;9.188;2022-07-23T07:53:45;10.17;;;7.60;;
35578;SDS011;21687;48.900;9.188;2022-07-23T07:56:11;9.63;;;7.83;;
35578;SDS011;21687;48.900;9.188;2022-07-23T07:58:38;9.57;;;8.47;;
35578;SDS011;21687;48.900;9.188;2022-07-23T08:01:04;9.07;;;8.13;;
35578;SDS011;21687;48.900;9.188;2022-07-23T08:03:30;9.00;;;8.10;;
35578;SDS011;21687;48.900;9.188;2022-07-23T08:05:56;10.80;;;8.80;;
35578;SDS011;21687;48.900;9.188;2022-07-23T08:08:23;8.30;;;7.57;;
35578;SDS011;21687;48.900;9.188;2022-07-23T08:10:50;8.70;;;7.90;;
35578;SDS011;21687;48.900;9.188;2022-07-23T08:13:16;8.67;;;7.77;;
35578;SDS011;21687;48.900;9.188;2022-07-23T08:15:42;8.30;;;7.50;;
35578;SDS011;21687;48.900;9.188;2022-07-23T08:18:09;8.43;;;7.63;;
35578;SDS011;21687;48.900;9.188;2022-07-23T08:20:35;8.63;;;7.70;;
35578;SDS011;21687;48.900;9.188;2022-07-23T08:23:05;8.93;;;8.10;;
35578;SDS011;21687;48.900;9.188;2022-07-23T08:25:37;8.23;;;7.53;;
35578;SDS011;21687;48.900;9.188;2022-07-23T08:28:06;7.87;;;7.17;;
35578;SDS011;21687;48.900;9.188;2022-07-23T08:30:34;9.00;;;7.77;;
35578;SDS011;21687;48.900;9.188;2022-07-23T08:33:02;7.50;;;6.80;;
35578;SDS011;21687;48.900;9.188;2022-07-23T08:38:01;7.57;;;6.73;;
35578;SDS011;21687;48.900;9.188;2022-07-23T08:40:30;7.40;;;6.50;;
35578;SDS011;21687;48.900;9.188;2022-07-23T08:42:58;6.90;;;6.17;;
35578;SDS011;21687;48.900;9.188;2022-07-23T08:45:27;6.03;;;5.53;;
35578;SDS011;21687;48.900;9.188;2022-07-23T08:47:55;5.77;;;5.10;;
35578;SDS011;21687;48.900;9.188;2022-07-23T08:50:24;6.23;;;5.63;;
35578;SDS011;21687;48.900;9.188;2022-07-23T08:52:51;6.23;;;5.43;;
35578;SDS011;21687;48.900;9.188;2022-07-23T08:55:19;6.07;;;5.40;;
35578;SDS011;21687;48.900;9.188;2022-07-23T08:57:48;6.43;;;5.10;;
35578;SDS011;21687;48.900;9.188;2022-07-23T09:00:18;9.03;;;5.37;;
35578;SDS011;21687;48.900;9.188;2022-07-23T09:02:46;6.03;;;5.47;;
35578;SDS011;21687;48.900;9.188;2022-07-23T09:05:16;5.90;;;5.23;;
35578;SDS011;21687;48.900;9.188;2022-07-23T09:10:48;5.67;;;5.07;;
35578;SDS011;21687;48.900;9.188;2022-07-23T09:15:57;5.40;;;4.90;;
35578;SDS011;21687;48.900;9.188;2022-07-23T09:18:42;5.00;;;4.60;;
35578;SDS011;21687;48.900;9.188;2022-07-23T09:21:10;5.00;;;4.60;;
35578;SDS011;21687;48.900;9.188;2022-07-23T09:23:48;5.23;;;4.77;;
35578;SDS011;21687;48.900;9.188;2022-07-23T09:26:29;5.50;;;4.90;;
35578;SDS011;21687;48.900;9.188;2022-07-23T09:29:16;5.57;;;5.17;;
35578;SDS011;21687;48.900;9.188;2022-07-23T09:31:53;7.10;;;4.83;;
35578;SDS011;21687;48.900;9.188;2022-07-23T09:34:22;5.50;;;5.10;;
35578;SDS011;21687;48.900;9.188;2022-07-23T09:37:11;5.53;;;5.03;;
35578;SDS011;21687;48.900;9.188;2022-07-23T09:39:39;5.67;;;5.10;;
35578;SDS011;21687;48.900;9.188;2022-07-23T09:44:44;5.60;;;5.10;;
35578;SDS011;21687;48.900;9.188;2022-07-23T09:47:14;6.17;;;4.93;;
35578;SDS011;21687;48.900;9.188;2022-07-23T09:49:57;5.57;;;4.93;;
35578;SDS011;21687;48.900;9.188;2022-07-23T09:52:30;5.10;;;4.70;;
35578;SDS011;21687;48.900;9.188;2022-07-23T09:55:10;5.37;;;4.97;;
35578;SDS011;21687;48.900;9.188;2022-07-23T09:57:37;7.20;;;5.27;;
35578;SDS011;21687;48.900;9.188;2022-07-23T10:00:06;5.70;;;5.20;;
35578;SDS011;21687;48.900;9.188;2022-07-23T10:02:35;6.03;;;5.43;;
35578;SDS011;21687;48.900;9.188;2022-07-23T10:05:03;6.07;;;5.37;;
35578;SDS011;21687;48.900;9.188;2022-07-23T10:07:34;6.47;;;5.60;;
35578;SDS011;21687;48.900;9.188;2022-07-23T10:10:05;6.10;;;5.40;;
35578;SDS011;21687;48.900;9.188;2022-07-23T10:12:32;6.50;;;6.00;;
35578;SDS011;21687;48.900;9.188;2022-07-23T10:15:05;5.70;;;5.17;;
35578;SDS011;21687;48.900;9.188;2022-07-23T10:17:32;5.97;;;5.20;;
35578;SDS011;21687;48.900;9.188;2022-07-23T10:19:59;5.80;;;5.30;;
35578;SDS011;21687;48.900;9.188;2022-07-23T10:22:27;5.63;;;5.13;;
35578;SDS011;21687;48.900;9.188;2022-07-23T10:28:24;5.40;;;4.90;;
35578;SDS011;21687;48.900;9.188;2022-07-23T10:34:12;5.50;;;5.00;;
35578;SDS011;21687;48.900;9.188;2022-07-23T10:39:21;5.13;;;4.73;;
35578;SDS011;21687;48.900;9.188;2022-07-23T10:42:18;5.47;;;4.93;;
35578;SDS011;21687;48.900;9.188;2022-07-23T10:44:47;5.47;;;5.00;;
35578;SDS011;21687;48.900;9.188;2022-07-23T10:47:29;5.00;;;4.60;;
35578;SDS011;21687;48.900;9.188;2022-07-23T10:50:21;5.10;;;4.60;;
35578;SDS011;21687;48.900;9.188;2022-07-23T10:58:13;5.17;;;4.70;;
35578;SDS011;21687;48.900;9.188;2022-07-23T11:00:47;4.97;;;4.57;;
35578;SDS011;21687;48.900;9.188;2022-07-23T11:03:33;5.10;;;4.70;;
35578;SDS011;21687;48.900;9.188;2022-07-23T11:06:04;5.10;;;4.60;;
35578;SDS011;21687;48.900;9.188;2022-07-23T11:08:30;5.37;;;4.87;;
35578;SDS011;21687;48.900;9.188;2022-07-23T11:13:37;5.10;;;4.70;;
35578;SDS011;21687;48.900;9.188;2022-07-23T11:16:04;5.00;;;4.50;;
35578;SDS011;21687;48.900;9.188;2022-07-23T11:26:41;5.00;;;4.50;;
35578;SDS011;21687;48.900;9.188;2022-07-23T11:32:00;4.83;;;4.40;;
35578;SDS011;21687;48.900;9.188;2022-07-23T11:34:35;5.40;;;4.90;;
35578;SDS011;21687;48.900;9.188;2022-07-23T11:37:06;5.10;;;4.60;;
35578;SDS011;21687;48.900;9.188;2022-07-23T11:39:37;5.40;;;4.90;;
35578;SDS011;21687;48.900;9.188;2022-07-23T11:42:05;4.77;;;4.37;;
35578;SDS011;21687;48.900;9.188;2022-07-23T11:44:37;5.20;;;4.77;;
35578;SDS011;21687;48.900;9.188;2022-07-23T11:47:05;5.00;;;4.60;;
35578;SDS011;21687;48.900;9.188;2022-07-23T11:49:33;5.57;;;5.07;;
35578;SDS011;21687;48.900;9.188;2022-07-23T11:52:13;4.80;;;4.40;;
35578;SDS011;21687;48.900;9.188;2022-07-23T11:54:50;5.10;;;4.70;;
35578;SDS011;21687;48.900;9.188;2022-07-23T11:57:18;6.40;;;5.23;;
35578;SDS011;21687;48.900;9.188;2022-07-23T11:59:50;5.73;;;4.83;;
35578;SDS011;21687;48.900;9.188;2022-07-23T12:02:21;6.90;;;5.20;;
35578;SDS011;21687;48.900;9.188;2022-07-23T12:04:49;5.83;;;5.23;;
35578;SDS011;21687;48.900;9.188;2022-07-23T12:07:30;5.77;;;5.27;;
35578;SDS011;21687;48.900;9.188;2022-07-23T12:10:12;5.37;;;4.97;;
35578;SDS011;21687;48.900;9.188;2022-07-23T12:12:42;5.87;;;5.20;;
35578;SDS011;21687;48.900;9.188;2022-07-23T12:15:13;5.70;;;5.20;;
35578;SDS011;21687;48.900;9.188;2022-07-23T12:17:41;7.07;;;5.23;;
35578;SDS011;21687;48.900;9.188;2022-07-23T12:20:10;5.73;;;5.13;;
35578;SDS011;21687;48.900;9.188;2022-07-23T12:22:40;6.07;;;5.47;;
35578;SDS011;21687;48.900;9.188;2022-07-23T12:25:15;5.77;;;5.20;;
35578;SDS011;21687;48.900;9.188;2022-07-23T12:27:46;6.37;;;5.60;;
35578;SDS011;21687;48.900;9.188;2022-07-23T12:30:31;5.60;;;5.20;;
35578;SDS011;21687;48.900;9.188;2022-07-23T12:33:06;5.60;;;5.20;;
35578;SDS011;21687;48.900;9.188;2022-07-23T12:35:41;6.10;;;5.50;;
35578;SDS011;21687;48.900;9.188;2022-07-23T12:38:11;5.77;;;5.27;;
35578;SDS011;21687;48.900;9.188;2022-07-23T12:40:43;6.23;;;5.63;;
35578;SDS011;21687;48.900;9.188;2022-07-23T12:43:35;9.60;;;5.70;;
35578;SDS011;21687;48.900;9.188;2022-07-23T12:48:32;7.03;;;5.67;;
35578;SDS011;21687;48.900;9.188;2022-07-23T12:51:08;5.90;;;5.40;;
35578;SDS011;21687;48.900;9.188;2022-07-23T12:53:41;5.97;;;5.33;;
35578;SDS011;21687;48.900;9.188;2022-07-23T12:56:10;6.43;;;5.83;;
35578;SDS011;21687;48.900;9.188;2022-07-23T12:58:42;6.30;;;5.70;;
35578;SDS011;21687;48.900;9.188;2022-07-23T13:01:10;7.03;;;5.80;;
35578;SDS011;21687;48.900;9.188;2022-07-23T13:03:57;7.73;;;5.83;;
35578;SDS011;21687;48.900;9.188;2022-07-23T13:06:27;5.80;;;5.30;;
35578;SDS011;21687;48.900;9.188;2022-07-23T13:09:18;6.17;;;5.60;;
35578;SDS011;21687;48.900;9.188;2022-07-23T13:11:49;10.10;;;6.67;;
35578;SDS011;21687;48.900;9.188;2022-07-23T13:14:17;6.33;;;5.80;;
35578;SDS011;21687;48.900;9.188;2022-07-23T13:16:44;6.47;;;5.87;;
35578;SDS011;21687;48.900;9.188;2022-07-23T13:19:11;6.70;;;6.10;;
35578;SDS011;21687;48.900;9.188;2022-07-23T13:21:38;6.97;;;5.83;;
35578;SDS011;21687;48.900;9.188;2022-07-23T13:24:05;7.27;;;6.63;;
35578;SDS011;21687;48.900;9.188;2022-07-23T13:26:32;7.17;;;6.33;;
35578;SDS011;21687;48.900;9.188;2022-07-23T13:28:58;7.20;;;6.40;;
35578;SDS011;21687;48.900;9.188;2022-07-23T13:31:24;9.87;;;6.57;;
35578;SDS011;21687;48.900;9.188;2022-07-23T13:33:51;6.93;;;6.33;;
35578;SDS011;21687;48.900;9.188;2022-07-23T13:36:17;6.50;;;5.97;;
35578;SDS011;21687;48.900;9.188;2022-07-23T13:38:44;8.70;;;6.47;;
35578;SDS011;21687;48.900;9.188;2022-07-23T13:41:10;7.20;;;6.50;;
35578;SDS011;21687;48.900;9.188;2022-07-23T13:43:36;6.80;;;6.20;;
35578;SDS011;21687;48.900;9.188;2022-07-23T13:46:03;6.60;;;6.10;;
35578;SDS011;21687;48.900;9.188;2022-07-23T13:48:29;6.20;;;5.67;;
35578;SDS011;21687;48.900;9.188;2022-07-23T13:50:56;6.30;;;5.70;;
35578;SDS011;21687;48.900;9.188;2022-07-23T13:53:23;6.17;;;5.60;;
35578;SDS011;21687;48.900;9.188;2022-07-23T13:55:50;6.40;;;5.80;;
35578;SDS011;21687;48.900;9.188;2022-07-23T13:58:18;6.03;;;5.43;;
35578;SDS011;21687;48.900;9.188;2022-07-23T14:00:48;6.87;;;6.27;;
35578;SDS011;21687;48.900;9.188;2022-07-23T14:03:16;6.10;;;5.60;;
35578;SDS011;21687;48.900;9.188;2022-07-23T14:05:43;6.07;;;5.50;;
35578;SDS011;21687;48.900;9.188;2022-07-23T14:08:10;6.17;;;5.67;;
35578;SDS011;21687;48.900;9.188;2022-07-23T14:10:36;6.30;;;5.80;;
35578;SDS011;21687;48.900;9.188;2022-07-23T14:13:16;5.87;;;5.47;;
35578;SDS011;21687;48.900;9.188;2022-07-23T14:15:54;6.73;;;5.80;;
35578;SDS011;21687;48.900;9.188;2022-07-23T14:18:30;6.40;;;5.90;;
35578;SDS011;21687;48.900;9.188;2022-07-23T14:21:02;6.90;;;5.60;;
35578;SDS011;21687;48.900;9.188;2022-07-23T14:23:29;6.53;;;5.87;;
35578;SDS011;21687;48.900;9.188;2022-07-23T14:25:55;6.63;;;5.90;;
35578;SDS011;21687;48.900;9.188;2022-07-23T14:28:22;6.90;;;6.20;;
35578;SDS011;21687;48.900;9.188;2022-07-23T14:30:48;6.47;;;5.80;;
35578;SDS011;21687;48.900;9.188;2022-07-23T14:33:14;7.10;;;6.40;;
35578;SDS011;21687;48.900;9.188;2022-07-23T14:35:41;7.13;;;5.63;;
35578;SDS011;21687;48.900;9.188;2022-07-23T14:38:07;6.03;;;5.53;;
35578;SDS011;21687;48.900;9.188;2022-07-23T14:40:34;6.13;;;5.53;;
35578;SDS011;21687;48.900;9.188;2022-07-23T14:43:00;6.27;;;5.63;;
35578;SDS011;21687;48.900;9.188;2022-07-23T14:45:26;6.43;;;5.90;;
35578;SDS011;21687;48.900;9.188;2022-07-23T14:47:55;6.77;;;6.17;;
35578;SDS011;21687;48.900;9.188;2022-07-23T14:50:21;7.10;;;6.40;;
35578;SDS011;21687;48.900;9.188;2022-07-23T14:52:47;6.87;;;6.27;;
35578;SDS011;21687;48.900;9.188;2022-07-23T14:55:13;7.07;;;6.37;;
35578;SDS011;21687;48.900;9.188;2022-07-23T14:57:42;6.43;;;5.90;;
35578;SDS011;21687;48.900;9.188;2022-07-23T15:00:09;7.13;;;5.93;;
35578;SDS011;21687;48.900;9.188;2022-07-23T15:02:35;6.83;;;6.13;;
35578;SDS011;21687;48.900;9.188;2022-07-23T15:05:02;6.47;;;5.97;;
35578;SDS011;21687;48.900;9.188;2022-07-23T15:07:29;7.07;;;6.47;;
35578;SDS011;21687;48.900;9.188;2022-07-23T15:09:56;6.23;;;5.63;;
35578;SDS011;21687;48.900;9.188;2022-07-23T15:12:22;6.30;;;5.70;;
35578;SDS011;21687;48.900;9.188;2022-07-23T15:14:49;6.73;;;6.13;;
35578;SDS011;21687;48.900;9.188;2022-07-23T15:17:15;6.93;;;6.13;;
35578;SDS011;21687;48.900;9.188;2022-07-23T15:19:42;6.63;;;6.13;;
35578;SDS011;21687;48.900;9.188;2022-07-23T15:22:08;7.07;;;6.47;;
35578;SDS011;21687;48.900;9.188;2022-07-23T15:24:34;7.57;;;6.83;;
35578;SDS011;21687;48.900;9.188;2022-07-23T15:27:00;7.17;;;6.47;;
35578;SDS011;21687;48.900;9.188;2022-07-23T15:29:27;6.33;;;5.83;;
35578;SDS011;21687;48.900;9.188;2022-07-23T15:31:53;7.70;;;6.70;;
35578;SDS011;21687;48.900;9.188;2022-07-23T15:34:19;8.00;;;6.63;;
35578;SDS011;21687;48.900;9.188;2022-07-23T15:36:45;7.20;;;6.60;;
35578;SDS011;21687;48.900;9.188;2022-07-23T15:39:12;8.30;;;5.73;;